Albuquerque (ABQ/KABQ)

Map

Information

Location
Albuquerque, NM
Local Time
18:56 / 6:56 pm
GMT Time
00:56 / 12:56 am
Gates
B3
No FAA reported delays
METAR KABQ 240052Z 09008KT 10SM VCTS SCT050CB BKN090 OVC130 27/06 A3012 RMK AO2 PK WND 04026/2357 LTG DSNT SE-W RAE08 TSB08E51 SLP118 FRQ LTGCGIC VC SE-SW TS SE-SW MOV E CB NE-OHD-W MOV E CB DSNT ALQDS VCSH SE-SW SHRA DSN
TAF KABQ 232342Z 2400/2424 36010KT P6SM VCTS SCT070CB BKN150 TEMPO 2400/2402 VRB20G30KT 5SM TSRA BKN050CB FM240300 09008KT P6SM VCSH BKN060 BKN100 FM241300 VRB03KT P6SM SCT050 BKN100 FM241800 30006KT P6SM FEW060 SCT120 FM242200 02010KT P6SM VCTS BKN060CB